SJQK weather

Barra do Vento Airport
Boa Vista, Roraima, Brazil

Public forecast

Using degrees Celsius for public forecast. Weather courtesy of forecast.io.

METAR (pilot weather report)

Closest report is Atlas Brasil Cantanhede Airport, 11.4 nm (21.1 km) NE. Retrieved 2019/03/22 22:00 UTC (48 minutes ago):

SBBV 222200Z 07010KT 9999 FEW040 35/16 Q1008

TAF (pilot weather forecast)

Closest forecast is Atlas Brasil Cantanhede Airport, 11.4 nm (21.1 km) NE. Retrieved 2019/03/22 18:34 UTC (4 hours ago):

TAF SBBV 221600Z 2218/2318 15010KT 9999 SCT035 TX35/2219Z TN25/2307Z BECMG 2223/2301 CAVOK BECMG 2304/2306 09008KT BECMG 2314/2316 9999 FEW035 RMK PEM